Time;durP1;ratioP1;P1;durP2;ratioP2;P2;SDS_P1;SDS_P2;PMS_P1;PMS_P2;Temp;Humidity;BMP_temperature;BMP_pressure;BME280_temperature;BME280_humidity;BME280_pressure;Samples;Min_cycle;Max_cycle;Signal;HPM_P1;HPM_P2
2022/01/23 00:00:18;;;;;;;2.47;1.10;;;4.60;99.90;;;;;;5095754;28;20422;-61
2022/01/23 00:02:45;;;;;;;2.50;1.40;;;4.60;99.90;;;;;;5095792;28;20433;-58
2022/01/23 00:05:13;;;;;;;2.90;1.30;;;4.70;99.90;;;;;;5094817;28;20494;-60
2022/01/23 00:07:41;;;;;;;3.75;1.65;;;4.60;99.90;;;;;;5094839;28;20460;-60
2022/01/23 00:10:10;;;;;;;2.00;1.30;;;4.50;99.90;;;;;;5094920;28;20414;-58
2022/01/23 00:12:43;;;;;;;2.90;1.40;;;4.40;99.90;;;;;;5096738;28;20529;-59
2022/01/23 00:17:55;;;;;;;4.13;1.50;;;4.30;99.90;;;;;;5094649;28;20420;-59
2022/01/23 00:20:23;;;;;;;4.00;1.60;;;4.30;99.90;;;;;;5095645;28;20445;-58
2022/01/23 00:22:53;;;;;;;3.65;1.58;;;4.20;99.90;;;;;;5095279;28;20437;-60
2022/01/23 00:30:54;;;;;;;3.33;1.40;;;4.00;99.90;;;;;;5095441;28;20852;-58
2022/01/23 00:33:23;;;;;;;3.90;1.50;;;4.00;99.90;;;;;;5096032;28;20487;-61
2022/01/23 00:35:53;;;;;;;2.70;1.30;;;4.10;99.90;;;;;;5096500;28;20429;-60
2022/01/23 00:38:22;;;;;;;2.95;1.20;;;4.10;99.90;;;;;;5096436;28;20767;-60
2022/01/23 00:40:49;;;;;;;3.40;1.30;;;4.20;99.90;;;;;;5095117;28;20465;-60
2022/01/23 00:43:17;;;;;;;3.17;1.20;;;4.20;99.90;;;;;;5093601;28;20940;-59
2022/01/23 00:45:48;;;;;;;2.30;1.00;;;4.10;99.90;;;;;;5093290;28;20832;-58
2022/01/23 00:48:17;;;;;;;3.35;1.33;;;4.20;99.90;;;;;;5093247;28;20448;-59
2022/01/23 00:50:46;;;;;;;2.37;1.10;;;4.20;99.90;;;;;;5094173;28;20897;-60
2022/01/23 00:53:15;;;;;;;3.00;1.02;;;4.30;99.90;;;;;;5094586;28;20488;-59
2022/01/23 00:55:43;;;;;;;1.80;1.10;;;4.40;99.90;;;;;;5094299;28;20437;-58
2022/01/23 00:58:11;;;;;;;2.70;1.20;;;4.50;99.90;;;;;;5094170;28;20841;-58
2022/01/23 01:00:39;;;;;;;2.72;1.10;;;4.50;99.90;;;;;;5093539;28;20449;-58
2022/01/23 01:03:06;;;;;;;2.20;1.00;;;4.50;99.90;;;;;;5093929;28;20542;-58
2022/01/23 01:05:34;;;;;;;2.10;1.10;;;4.50;99.90;;;;;;5094377;28;20450;-58
2022/01/23 01:08:04;;;;;;;1.80;1.00;;;4.50;99.90;;;;;;5094703;28;20426;-60
2022/01/23 01:10:37;;;;;;;2.40;1.00;;;4.50;99.90;;;;;;5094897;28;20460;-58
2022/01/23 01:13:06;;;;;;;2.05;0.90;;;4.50;99.90;;;;;;5094973;28;20545;-58
2022/01/23 01:15:53;;;;;;;3.58;1.10;;;4.40;99.90;;;;;;5094704;28;20437;-58
2022/01/23 01:32:07;;;;;;;1.90;0.98;;;4.50;99.90;;;;;;5095596;28;20443;-58
2022/01/23 01:34:39;;;;;;;1.98;1.00;;;4.50;99.90;;;;;;5095368;28;20434;-58
2022/01/23 01:37:09;;;;;;;2.20;1.10;;;4.40;99.90;;;;;;5095690;28;20421;-58
2022/01/23 01:39:36;;;;;;;2.50;1.23;;;4.30;99.90;;;;;;5095420;28;20520;-58
2022/01/23 01:42:04;;;;;;;2.70;1.20;;;4.20;99.90;;;;;;5095385;28;20884;-58
2022/01/23 01:44:31;;;;;;;3.47;1.20;;;4.10;99.90;;;;;;5095182;28;20426;-59
2022/01/23 01:46:59;;;;;;;2.55;1.25;;;4.00;99.90;;;;;;5095337;28;20446;-58
2022/01/23 01:49:29;;;;;;;4.07;1.50;;;4.00;99.90;;;;;;5095227;28;20781;-58
2022/01/23 01:51:57;;;;;;;3.72;1.20;;;4.00;99.90;;;;;;5094923;28;20467;-58
2022/01/23 01:54:27;;;;;;;4.43;1.50;;;4.00;99.90;;;;;;5095190;28;20514;-59
2022/01/23 01:57:05;;;;;;;2.85;1.25;;;4.00;99.90;;;;;;5095004;28;20515;-58
2022/01/23 02:00:01;;;;;;;2.70;1.20;;;4.10;99.90;;;;;;5094263;28;20429;-58
2022/01/23 02:02:58;;;;;;;2.13;1.10;;;4.20;99.90;;;;;;5093610;28;20742;-59
2022/01/23 02:08:24;;;;;;;3.05;1.20;;;4.40;99.90;;;;;;5093667;28;20458;-58
2022/01/23 02:10:57;;;;;;;2.97;1.30;;;4.50;99.90;;;;;;5093496;28;20460;-58
2022/01/23 02:13:29;;;;;;;4.20;1.50;;;4.60;99.90;;;;;;5095704;28;20418;-59
2022/01/23 02:22:28;;;;;;;3.53;1.40;;;4.70;99.90;;;;;;5097224;28;20559;-58
2022/01/23 02:24:49;;;;;;;4.68;1.80;;;4.70;99.90;;;;;;5096945;28;20413;-58
2022/01/23 02:52:29;;;;;;;4.60;1.65;;;4.50;99.90;;;;;;5035068;28;20403;-59
2022/01/23 02:55:08;;;;;;;3.97;1.65;;;4.40;99.90;;;;;;5034816;28;20903;-59
2022/01/23 02:57:51;;;;;;;5.05;1.60;;;4.30;99.90;;;;;;5072933;28;20483;-59
2022/01/23 03:00:23;;;;;;;5.72;2.00;;;4.30;99.90;;;;;;5096426;28;20424;-59
2022/01/23 03:02:53;;;;;;;3.60;1.60;;;4.30;99.90;;;;;;5096989;28;20480;-58
2022/01/23 03:05:34;;;;;;;3.77;1.70;;;4.30;99.90;;;;;;5096033;28;20410;-58
2022/01/23 03:08:06;;;;;;;3.10;1.95;;;4.30;99.90;;;;;;5094958;28;20503;-58
2022/01/23 03:10:36;;;;;;;4.43;1.88;;;4.30;99.90;;;;;;5094740;28;20854;-58
2022/01/23 03:13:39;;;;;;;4.43;1.50;;;4.30;99.90;;;;;;5094769;28;20716;-59
2022/01/23 03:24:02;;;;;;;4.30;2.00;;;4.30;99.90;;;;;;5095783;28;20421;-59
2022/01/23 03:25:02;;;;;;;4.73;1.70;;;4.10;99.90;;;;;;5054202;28;20735;-59
2022/01/23 03:30:24;;;;;;;5.63;2.10;;;4.20;99.90;;;;;;5061348;28;20481;-59
2022/01/23 03:32:52;;;;;;;4.68;1.60;;;4.20;99.90;;;;;;5098155;28;20483;-59
2022/01/23 03:35:21;;;;;;;3.40;1.60;;;4.10;99.90;;;;;;5097625;28;20457;-59
2022/01/23 03:37:49;;;;;;;3.17;1.60;;;4.10;99.90;;;;;;5097452;28;20426;-59
2022/01/23 03:40:16;;;;;;;3.30;1.60;;;4.10;99.90;;;;;;5097234;28;20424;-59
2022/01/23 03:42:46;;;;;;;4.13;1.70;;;4.20;99.90;;;;;;5097642;28;20529;-59
2022/01/23 03:45:36;;;;;;;4.70;1.50;;;4.20;99.90;;;;;;5097702;28;20898;-58
2022/01/23 03:49:31;;;;;;;3.67;1.77;;;4.20;99.90;;;;;;5097296;28;20760;-59
2022/01/23 03:50:52;;;;;;;3.80;2.10;;;4.30;99.90;;;;;;5097645;28;20409;-59
2022/01/23 03:53:19;;;;;;;4.70;1.90;;;4.40;99.90;;;;;;5097595;28;20505;-59
2022/01/23 03:55:50;;;;;;;3.80;1.70;;;4.40;99.90;;;;;;5097299;28;20891;-59
2022/01/23 03:58:18;;;;;;;4.72;1.73;;;4.50;99.90;;;;;;5097049;28;20422;-58
2022/01/23 04:00:45;;;;;;;4.97;1.90;;;4.60;99.90;;;;;;5097288;28;20810;-59
2022/01/23 04:03:12;;;;;;;4.82;2.20;;;4.50;99.90;;;;;;5097255;28;20483;-59
2022/01/23 04:05:39;;;;;;;3.83;1.80;;;4.40;99.90;;;;;;5096261;28;20437;-58
2022/01/23 04:08:06;;;;;;;5.20;2.17;;;4.40;99.90;;;;;;5095738;28;20454;-58
2022/01/23 04:10:33;;;;;;;6.45;2.17;;;4.40;99.90;;;;;;5095530;28;20461;-58
2022/01/23 04:13:11;;;;;;;5.68;2.50;;;4.40;99.90;;;;;;5095764;28;20474;-58
2022/01/23 04:15:45;;;;;;;6.72;2.70;;;4.40;99.90;;;;;;5095894;28;20417;-58
2022/01/23 04:19:03;;;;;;;5.25;2.20;;;4.30;99.90;;;;;;5096046;28;20437;-58
2022/01/23 04:31:38;;;;;;;5.27;1.70;;;4.30;99.90;;;;;;5096461;28;20844;-56
2022/01/23 04:32:40;;;;;;;5.90;2.17;;;4.50;99.90;;;;;;5095626;28;20588;-58
2022/01/23 04:35:30;;;;;;;4.10;1.70;;;4.50;99.90;;;;;;5096376;28;20426;-58
2022/01/23 04:46:46;;;;;;;5.47;2.00;;;4.30;99.90;;;;;;5095714;28;20436;-58
2022/01/23 05:00:03;;;;;;;4.85;2.45;;;4.30;99.90;;;;;;5095070;28;20409;-58
2022/01/23 05:03:02;;;;;;;4.95;2.40;;;4.20;99.90;;;;;;5095834;28;20790;-58
2022/01/23 05:05:30;;;;;;;4.35;2.20;;;4.10;99.90;;;;;;5095606;28;20406;-58
2022/01/23 05:07:57;;;;;;;5.47;2.65;;;4.10;99.90;;;;;;5095672;28;20429;-59
2022/01/23 05:10:24;;;;;;;6.20;2.43;;;4.10;99.90;;;;;;5095438;28;20422;-58
2022/01/23 05:12:51;;;;;;;5.63;2.17;;;4.20;99.90;;;;;;5094715;28;20774;-59
2022/01/23 05:15:18;;;;;;;4.90;2.50;;;4.30;99.90;;;;;;5095539;28;20414;-59
2022/01/23 05:17:45;;;;;;;4.18;1.90;;;4.30;99.90;;;;;;5094120;28;20455;-58
2022/01/23 05:20:14;;;;;;;5.22;2.10;;;4.40;99.90;;;;;;5094197;28;20483;-59
2022/01/23 05:22:46;;;;;;;3.22;1.75;;;4.40;99.90;;;;;;5095903;28;20856;-59
2022/01/23 05:25:18;;;;;;;4.88;2.38;;;4.40;99.90;;;;;;5095543;28;20429;-60
2022/01/23 05:27:46;;;;;;;5.40;2.00;;;4.50;99.90;;;;;;5095794;28;20539;-60
2022/01/23 05:30:13;;;;;;;3.83;2.20;;;4.60;99.90;;;;;;5095292;28;20512;-59
2022/01/23 05:32:42;;;;;;;5.33;2.40;;;4.60;99.90;;;;;;5095243;28;20452;-59
2022/01/23 05:35:11;;;;;;;5.20;2.50;;;4.60;99.90;;;;;;5095745;28;20450;-60
2022/01/23 05:37:38;;;;;;;5.85;2.90;;;4.50;99.90;;;;;;5095438;28;20475;-59
2022/01/23 05:40:08;;;;;;;5.57;3.25;;;4.60;99.90;;;;;;5095548;28;20418;-59
2022/01/23 05:42:35;;;;;;;5.78;2.55;;;4.60;99.90;;;;;;5095421;28;20712;-59
2022/01/23 05:45:02;;;;;;;5.22;2.53;;;4.60;99.90;;;;;;5094803;28;20841;-59
2022/01/23 05:47:29;;;;;;;5.70;2.30;;;4.80;99.90;;;;;;5093632;28;20433;-59
2022/01/23 05:49:56;;;;;;;5.97;2.70;;;4.80;99.90;;;;;;5093828;28;20405;-59
2022/01/23 05:52:24;;;;;;;5.40;2.60;;;4.70;99.90;;;;;;5093541;28;20465;-59
2022/01/23 05:54:51;;;;;;;6.75;3.08;;;4.70;99.90;;;;;;5094326;28;20460;-59
2022/01/23 05:57:19;;;;;;;5.95;3.65;;;4.50;99.90;;;;;;5093848;28;20429;-59
2022/01/23 05:59:48;;;;;;;6.57;3.33;;;4.50;99.90;;;;;;5093826;28;20851;-58
2022/01/23 06:02:15;;;;;;;5.73;2.70;;;4.60;99.90;;;;;;5095351;28;20465;-60
2022/01/23 06:04:42;;;;;;;8.40;3.10;;;4.70;99.90;;;;;;5095061;28;20464;-58
2022/01/23 06:07:09;;;;;;;5.35;2.90;;;4.80;99.90;;;;;;5093964;28;20461;-61
2022/01/23 06:09:37;;;;;;;7.28;3.40;;;4.70;99.90;;;;;;5094587;28;20452;-58
2022/01/23 06:12:05;;;;;;;6.40;3.20;;;4.80;99.90;;;;;;5094943;28;20722;-59
2022/01/23 06:14:33;;;;;;;5.38;2.85;;;4.80;99.90;;;;;;5095053;28;20458;-58
2022/01/23 06:17:00;;;;;;;7.18;3.47;;;4.80;99.90;;;;;;5094462;28;20442;-58
2022/01/23 06:19:27;;;;;;;7.63;3.42;;;4.90;99.90;;;;;;5094818;28;20465;-59
2022/01/23 06:21:54;;;;;;;7.05;3.90;;;4.80;99.90;;;;;;5095229;28;20424;-58
2022/01/23 06:24:26;;;;;;;7.82;4.38;;;4.80;99.90;;;;;;5094703;28;20810;-59
2022/01/23 06:26:55;;;;;;;6.32;3.90;;;4.80;99.90;;;;;;5094568;28;20440;-59
2022/01/23 06:29:23;;;;;;;7.68;4.40;;;4.70;99.90;;;;;;5094054;28;20491;-59
2022/01/23 06:31:53;;;;;;;8.20;3.75;;;4.70;99.90;;;;;;5094142;28;20472;-59
2022/01/23 06:34:20;;;;;;;7.28;3.58;;;4.70;99.90;;;;;;5094935;28;20839;-59
2022/01/23 06:36:50;;;;;;;8.32;3.65;;;4.80;99.90;;;;;;5094377;28;20777;-59
2022/01/23 06:39:17;;;;;;;7.30;3.55;;;4.80;99.90;;;;;;5094579;28;20428;-58
2022/01/23 06:41:44;;;;;;;5.63;3.10;;;4.90;99.90;;;;;;5093623;28;20499;-59
2022/01/23 06:44:11;;;;;;;6.03;3.20;;;5.00;99.90;;;;;;5093511;28;20430;-58
2022/01/23 06:46:39;;;;;;;8.50;3.80;;;5.00;99.90;;;;;;5091524;28;20472;-58
2022/01/23 06:49:08;;;;;;;7.13;4.22;;;5.00;99.90;;;;;;5090757;28;20425;-59
2022/01/23 06:51:35;;;;;;;6.60;3.40;;;5.00;99.90;;;;;;5091528;28;20708;-59
2022/01/23 06:54:02;;;;;;;8.45;3.88;;;4.90;99.90;;;;;;5090370;28;20857;-59
2022/01/23 06:56:29;;;;;;;9.02;3.80;;;4.80;99.90;;;;;;5088987;28;20813;-58
2022/01/23 06:58:56;;;;;;;8.23;3.42;;;4.70;99.90;;;;;;5090383;28;20849;-59
2022/01/23 07:01:23;;;;;;;7.05;3.22;;;4.60;99.90;;;;;;5094546;28;20410;-59
2022/01/23 07:03:50;;;;;;;6.93;3.33;;;4.60;99.90;;;;;;5095830;28;20819;-59
2022/01/23 07:06:18;;;;;;;7.10;4.00;;;4.60;99.90;;;;;;5096626;28;20450;-59
2022/01/23 07:08:45;;;;;;;6.95;3.63;;;4.60;99.90;;;;;;5096921;28;20473;-60
2022/01/23 07:11:12;;;;;;;6.93;3.70;;;4.60;99.90;;;;;;5098036;28;20723;-58
2022/01/23 07:13:39;;;;;;;8.32;4.10;;;4.50;99.90;;;;;;5098009;28;20776;-59
2022/01/23 07:16:06;;;;;;;7.68;4.63;;;4.70;99.90;;;;;;5097715;28;20453;-59
2022/01/23 07:18:33;;;;;;;7.95;3.47;;;4.70;99.90;;;;;;5096436;28;20433;-59
2022/01/23 07:21:00;;;;;;;6.88;4.10;;;4.70;99.90;;;;;;5097250;28;20507;-59
2022/01/23 07:23:29;;;;;;;11.40;5.20;;;4.80;99.90;;;;;;5096946;28;20937;-58
2022/01/23 07:25:56;;;;;;;8.20;4.53;;;4.90;99.90;;;;;;5097838;28;20457;-58
2022/01/23 07:28:32;;;;;;;6.85;4.03;;;4.90;99.90;;;;;;5097695;28;20471;-58
2022/01/23 07:31:03;;;;;;;8.15;4.68;;;4.80;99.90;;;;;;5097306;28;20825;-59
2022/01/23 07:33:30;;;;;;;7.10;4.18;;;4.70;99.90;;;;;;5096733;28;20409;-59
2022/01/23 07:35:57;;;;;;;9.40;4.10;;;4.70;99.90;;;;;;5089641;28;20508;-58
2022/01/23 07:38:24;;;;;;;9.20;4.90;;;4.70;99.90;;;;;;5090250;28;20521;-59
2022/01/23 07:40:52;;;;;;;9.43;5.05;;;4.70;99.90;;;;;;5089798;28;20613;-59
2022/01/23 07:43:19;;;;;;;8.05;4.22;;;4.70;99.90;;;;;;5088667;28;20521;-59
2022/01/23 07:45:46;;;;;;;8.47;4.23;;;4.70;99.90;;;;;;5094011;28;20458;-59
2022/01/23 07:48:13;;;;;;;8.90;4.80;;;4.70;99.90;;;;;;5090422;28;20455;-58
2022/01/23 07:50:40;;;;;;;8.02;4.35;;;4.70;99.90;;;;;;5083305;28;20848;-59
2022/01/23 07:53:07;;;;;;;8.25;4.53;;;4.70;99.90;;;;;;5091940;28;20456;-58
2022/01/23 07:55:34;;;;;;;7.97;3.95;;;4.80;99.90;;;;;;5087622;28;20451;-60
2022/01/23 07:58:10;;;;;;;6.82;3.65;;;4.80;99.90;;;;;;5076645;28;20462;-60
2022/01/23 08:00:37;;;;;;;8.05;4.35;;;4.80;99.90;;;;;;5086256;28;20464;-61
2022/01/23 08:03:04;;;;;;;8.15;3.97;;;4.90;99.90;;;;;;5096863;28;20412;-60
2022/01/23 08:05:31;;;;;;;8.00;3.97;;;4.90;99.90;;;;;;5096163;28;20457;-60
2022/01/23 08:07:58;;;;;;;10.55;5.07;;;4.90;99.90;;;;;;5082585;28;20493;-60
2022/01/23 08:10:25;;;;;;;6.43;3.38;;;5.00;99.90;;;;;;5075243;28;20419;-58
2022/01/23 08:12:52;;;;;;;11.40;4.70;;;5.00;99.90;;;;;;5074788;28;20442;-58
2022/01/23 08:15:20;;;;;;;6.95;4.28;;;5.00;99.90;;;;;;5074481;28;20795;-58
2022/01/23 08:17:47;;;;;;;6.45;4.03;;;5.00;99.90;;;;;;5073613;28;20502;-58
2022/01/23 08:20:14;;;;;;;7.53;4.70;;;5.10;99.90;;;;;;5074489;28;20451;-58
2022/01/23 08:22:41;;;;;;;7.10;3.72;;;5.20;99.90;;;;;;5074940;28;20459;-58
2022/01/23 08:25:09;;;;;;;12.50;5.38;;;5.30;99.90;;;;;;5075298;28;20431;-58
2022/01/23 08:27:36;;;;;;;7.87;4.50;;;5.30;99.90;;;;;;5076533;28;20463;-59
2022/01/23 08:30:04;;;;;;;10.03;4.80;;;5.40;99.90;;;;;;5075379;28;20484;-59
2022/01/23 08:32:32;;;;;;;8.55;4.25;;;5.30;99.90;;;;;;5088596;28;20426;-58
2022/01/23 08:34:59;;;;;;;9.65;5.43;;;5.20;99.90;;;;;;5093511;28;21052;-59
2022/01/23 08:37:26;;;;;;;9.48;5.18;;;5.20;99.90;;;;;;5090842;28;20521;-59
2022/01/23 08:39:54;;;;;;;8.70;5.00;;;5.20;99.90;;;;;;5089241;28;20560;-59
2022/01/23 08:42:21;;;;;;;9.25;5.70;;;5.20;99.90;;;;;;5078632;28;20825;-59
2022/01/23 08:44:49;;;;;;;10.70;5.88;;;5.30;99.90;;;;;;5090590;28;20516;-58
2022/01/23 08:47:16;;;;;;;11.30;5.70;;;5.20;99.90;;;;;;5094349;28;20430;-58
2022/01/23 08:49:47;;;;;;;10.52;6.13;;;5.00;99.90;;;;;;5091813;28;20425;-58
2022/01/23 08:52:17;;;;;;;8.65;5.38;;;5.10;99.90;;;;;;5090100;28;20542;-59
2022/01/23 08:54:45;;;;;;;8.82;5.03;;;5.20;99.90;;;;;;5093227;28;20421;-59
2022/01/23 08:57:13;;;;;;;8.98;4.40;;;5.20;99.90;;;;;;5087320;28;20433;-61
2022/01/23 08:59:41;;;;;;;7.45;4.60;;;5.40;99.90;;;;;;5093581;28;20508;-59
2022/01/23 09:02:09;;;;;;;7.93;4.65;;;5.40;99.90;;;;;;5091740;28;20465;-59
2022/01/23 09:04:36;;;;;;;8.88;5.55;;;5.40;99.90;;;;;;5091015;28;20936;-59
2022/01/23 09:07:05;;;;;;;11.70;5.93;;;5.40;99.90;;;;;;5090067;28;20465;-59
2022/01/23 09:09:37;;;;;;;8.47;5.77;;;5.50;99.90;;;;;;5091153;28;20518;-59
2022/01/23 09:12:10;;;;;;;9.03;5.27;;;5.40;99.90;;;;;;5090783;28;20532;-59
2022/01/23 09:14:37;;;;;;;10.20;6.20;;;5.40;99.90;;;;;;5089949;28;20420;-59
2022/01/23 09:17:05;;;;;;;11.00;5.32;;;5.60;99.90;;;;;;5088615;28;20540;-58
2022/01/23 09:19:32;;;;;;;10.93;6.65;;;5.70;99.90;;;;;;5085182;28;20417;-58
2022/01/23 09:22:00;;;;;;;11.23;5.83;;;5.70;99.90;;;;;;5087188;28;20461;-59
2022/01/23 09:24:30;;;;;;;10.00;6.05;;;5.80;99.90;;;;;;5090155;28;20602;-59
2022/01/23 09:27:03;;;;;;;12.20;6.60;;;5.80;99.90;;;;;;5090559;28;20433;-59
2022/01/23 09:29:33;;;;;;;11.93;5.70;;;5.80;99.90;;;;;;5091855;28;20428;-59
2022/01/23 09:32:01;;;;;;;12.23;7.10;;;5.70;99.90;;;;;;5091014;28;20432;-59
2022/01/23 09:34:31;;;;;;;8.43;4.82;;;5.60;99.90;;;;;;5091791;28;20967;-59
2022/01/23 09:37:00;;;;;;;9.07;4.90;;;5.70;99.90;;;;;;5089667;28;20464;-59
2022/01/23 09:39:30;;;;;;;7.53;4.70;;;5.80;99.90;;;;;;5092183;28;20468;-59
2022/01/23 09:42:00;;;;;;;7.90;4.55;;;5.90;99.90;;;;;;5091561;28;20483;-59
2022/01/23 09:44:31;;;;;;;9.13;5.18;;;5.80;99.90;;;;;;5090597;28;20534;-60
2022/01/23 09:46:58;;;;;;;9.13;6.22;;;5.90;99.90;;;;;;5091503;28;20430;-60
2022/01/23 09:49:32;;;;;;;11.57;6.25;;;6.00;99.90;;;;;;5091607;28;20449;-60
2022/01/23 09:52:02;;;;;;;10.27;5.85;;;6.10;99.90;;;;;;5092113;28;20451;-60
2022/01/23 09:54:33;;;;;;;9.85;5.30;;;6.10;99.90;;;;;;5093792;28;20421;-64
2022/01/23 09:57:02;;;;;;;8.88;5.80;;;6.00;99.90;;;;;;5091435;28;20438;-59
2022/01/23 09:59:30;;;;;;;9.83;5.37;;;6.10;99.90;;;;;;5092233;28;20417;-60
2022/01/23 10:01:57;;;;;;;11.15;5.82;;;6.10;99.90;;;;;;5090761;28;20429;-59
2022/01/23 10:04:25;;;;;;;11.73;5.50;;;6.10;99.90;;;;;;5091329;28;20880;-60
2022/01/23 10:06:53;;;;;;;10.25;5.85;;;5.90;99.90;;;;;;5090863;28;20503;-60
2022/01/23 10:09:24;;;;;;;8.73;6.20;;;5.90;99.90;;;;;;5092291;28;20461;-60
2022/01/23 10:11:53;;;;;;;7.97;3.97;;;6.00;99.90;;;;;;5090881;28;20761;-60
2022/01/23 10:14:21;;;;;;;10.70;5.47;;;6.20;99.90;;;;;;5090292;28;20475;-60
2022/01/23 10:16:48;;;;;;;10.30;5.20;;;6.20;99.90;;;;;;5083067;28;20477;-60
2022/01/23 10:19:16;;;;;;;9.60;5.68;;;6.20;99.90;;;;;;5090622;28;20476;-60
2022/01/23 10:21:45;;;;;;;8.48;4.97;;;6.10;99.90;;;;;;5092236;28;20453;-60
2022/01/23 10:24:13;;;;;;;7.20;3.95;;;6.10;99.90;;;;;;5091255;28;20526;-60
2022/01/23 10:26:46;;;;;;;7.72;3.47;;;6.20;99.90;;;;;;5091658;28;20429;-60
2022/01/23 10:29:18;;;;;;;8.03;3.90;;;6.40;99.90;;;;;;5091312;28;20888;-60
2022/01/23 10:32:04;;;;;;;7.35;3.83;;;6.50;99.90;;;;;;5091650;28;20438;-61
2022/01/23 10:34:43;;;;;;;8.88;5.28;;;6.50;99.90;;;;;;5084171;28;20494;-60
2022/01/23 10:37:11;;;;;;;8.27;4.55;;;6.60;99.90;;;;;;5094973;28;20919;-60
2022/01/23 10:39:42;;;;;;;8.30;5.32;;;6.70;99.90;;;;;;5093528;28;20848;-60
2022/01/23 10:42:47;;;;;;;8.30;4.72;;;6.70;99.90;;;;;;5094041;28;20499;-61
2022/01/23 10:48:27;;;;;;;5.35;3.03;;;6.60;99.90;;;;;;5087173;28;20408;-59
2022/01/23 10:51:12;;;;;;;5.38;2.75;;;6.50;99.90;;;;;;5089093;28;20740;-60
2022/01/23 10:54:00;;;;;;;5.80;3.63;;;6.50;99.90;;;;;;5086947;28;20433;-59
2022/01/23 10:56:29;;;;;;;7.53;4.05;;;6.70;99.90;;;;;;5092595;28;20453;-60
2022/01/23 10:59:01;;;;;;;5.13;2.40;;;6.60;99.90;;;;;;5090697;28;20453;-59
2022/01/23 11:01:29;;;;;;;5.07;2.40;;;6.50;99.90;;;;;;5085918;28;20428;-59
2022/01/23 11:04:11;;;;;;;5.40;2.30;;;6.50;99.90;;;;;;5076405;28;20502;-59
2022/01/23 11:06:55;;;;;;;5.97;2.72;;;6.50;99.90;;;;;;5089645;28;20437;-60
2022/01/23 11:09:27;;;;;;;4.82;2.53;;;6.60;99.90;;;;;;5095456;28;20728;-60
2022/01/23 11:12:01;;;;;;;4.38;2.17;;;6.70;99.90;;;;;;5093090;28;20465;-60
2022/01/23 11:17:25;;;;;;;5.63;3.05;;;6.60;99.90;;;;;;5095619;28;20530;-61
2022/01/23 11:20:03;;;;;;;5.50;3.07;;;6.60;99.90;;;;;;5097323;28;20429;-61
2022/01/23 11:22:32;;;;;;;5.18;2.50;;;6.60;99.90;;;;;;5077541;28;20431;-61
2022/01/23 11:25:02;;;;;;;3.88;1.85;;;6.70;99.90;;;;;;5076152;28;20772;-61
2022/01/23 11:27:34;;;;;;;5.45;2.70;;;6.90;99.90;;;;;;5094377;28;20729;-61
2022/01/23 11:30:06;;;;;;;4.65;2.40;;;7.10;99.90;;;;;;5095774;28;20461;-61
2022/01/23 11:32:39;;;;;;;6.22;4.28;;;7.00;99.90;;;;;;5091980;28;20434;-61
2022/01/23 11:35:11;;;;;;;5.97;3.40;;;7.00;99.90;;;;;;5096068;28;20422;-62
2022/01/23 11:37:45;;;;;;;5.70;3.53;;;7.10;99.90;;;;;;5097018;28;20414;-61
2022/01/23 11:40:31;;;;;;;9.10;5.30;;;7.20;99.90;;;;;;5080956;28;20530;-60
2022/01/23 11:53:43;;;;;;;6.00;3.37;;;7.00;99.90;;;;;;5096199;28;20478;-61
2022/01/23 11:54:08;;;;;;;5.95;3.40;;;6.70;99.90;;;;;;5095891;28;20422;-61
2022/01/23 11:56:39;;;;;;;6.00;3.20;;;6.80;99.90;;;;;;5093484;28;20521;-61
2022/01/23 11:59:29;;;;;;;6.20;3.10;;;7.00;99.90;;;;;;5095963;28;20426;-61
2022/01/23 12:02:29;;;;;;;5.70;3.23;;;7.10;99.90;;;;;;5095517;28;20433;-61
2022/01/23 12:05:26;;;;;;;4.80;3.13;;;7.10;99.90;;;;;;5093176;28;20455;-61
2022/01/23 12:08:36;;;;;;;9.18;3.78;;;7.00;99.90;;;;;;5088688;28;20768;-61
2022/01/23 12:17:46;;;;;;;9.30;4.47;;;6.60;99.90;;;;;;5093782;28;20775;-61
2022/01/23 12:20:31;;;;;;;6.35;3.05;;;6.70;99.90;;;;;;5086185;28;20687;-61
2022/01/23 12:23:00;;;;;;;5.20;2.75;;;6.50;99.90;;;;;;5092022;28;20457;-59
2022/01/23 12:25:30;;;;;;;5.70;3.00;;;6.30;99.90;;;;;;5091911;28;20429;-59
2022/01/23 12:28:20;;;;;;;5.47;2.70;;;6.30;99.90;;;;;;5076916;28;20442;-59
2022/01/23 12:30:49;;;;;;;4.20;1.98;;;6.30;99.90;;;;;;5078535;28;20422;-59
2022/01/23 12:33:30;;;;;;;3.15;1.55;;;6.30;99.90;;;;;;5091303;28;20794;-59
2022/01/23 12:36:19;;;;;;;4.55;1.60;;;6.40;99.90;;;;;;5088525;28;20694;-59
2022/01/23 12:38:49;;;;;;;3.67;1.88;;;6.10;99.90;;;;;;5090265;28;20425;-60
2022/01/23 12:41:26;;;;;;;4.93;2.20;;;6.40;99.90;;;;;;5090977;28;20457;-60
2022/01/23 12:43:56;;;;;;;4.78;1.73;;;6.60;99.90;;;;;;5092611;28;20953;-59
2022/01/23 12:46:25;;;;;;;3.53;2.10;;;6.70;99.90;;;;;;5093754;28;20422;-60
2022/01/23 12:48:52;;;;;;;5.35;2.15;;;6.50;99.90;;;;;;5090352;28;20425;-60
2022/01/23 12:51:38;;;;;;;4.37;2.60;;;6.50;99.90;;;;;;5093089;28;20471;-60
2022/01/23 12:54:35;;;;;;;4.10;1.90;;;6.50;99.90;;;;;;5072301;28;20427;-60
2022/01/23 12:57:12;;;;;;;3.97;1.98;;;6.50;99.90;;;;;;5073340;28;20446;-60
2022/01/23 12:59:39;;;;;;;3.53;1.60;;;6.60;99.90;;;;;;5081186;28;20518;-60
2022/01/23 13:02:15;;;;;;;4.63;1.80;;;6.70;99.90;;;;;;5079132;28;20418;-60
2022/01/23 13:04:45;;;;;;;2.85;1.35;;;6.80;99.90;;;;;;5081403;28;20446;-59
2022/01/23 13:07:21;;;;;;;2.42;1.10;;;6.90;99.90;;;;;;5086392;28;20945;-60
2022/01/23 13:09:55;;;;;;;3.17;1.10;;;6.90;99.90;;;;;;5088904;28;20865;-60
2022/01/23 13:12:35;;;;;;;3.63;1.27;;;6.90;99.90;;;;;;5080089;28;20525;-60
2022/01/23 13:18:11;;;;;;;1.70;1.10;;;6.80;99.90;;;;;;5074685;28;20417;-60
2022/01/23 13:26:40;;;;;;;2.80;1.20;;;6.80;99.90;;;;;;5092893;28;20461;-60
2022/01/23 13:32:02;;;;;;;2.35;1.10;;;6.90;99.90;;;;;;5092263;28;20394;-61
2022/01/23 13:34:32;;;;;;;1.92;1.00;;;6.70;99.90;;;;;;5093013;28;20517;-61
2022/01/23 13:37:03;;;;;;;2.05;0.90;;;6.70;99.90;;;;;;5093226;28;20428;-60
2022/01/23 13:39:34;;;;;;;2.30;1.00;;;6.80;99.90;;;;;;5092585;28;20687;-62
2022/01/23 13:42:36;;;;;;;2.40;1.20;;;6.90;99.90;;;;;;5091807;28;20511;-60
2022/01/23 13:48:23;;;;;;;1.70;0.90;;;6.70;99.90;;;;;;5094179;28;20452;-60
2022/01/23 13:54:02;;;;;;;2.00;0.90;;;6.60;99.90;;;;;;5091771;28;20429;-60
2022/01/23 13:59:24;;;;;;;1.50;0.80;;;6.50;99.90;;;;;;5061893;28;20437;-61
2022/01/23 14:01:56;;;;;;;1.40;0.80;;;6.50;99.90;;;;;;5094160;28;20829;-60
2022/01/23 14:04:25;;;;;;;1.50;0.80;;;6.50;99.90;;;;;;5093730;28;20522;-61
2022/01/23 14:06:53;;;;;;;2.30;1.00;;;6.30;99.90;;;;;;5093764;28;20465;-61
2022/01/23 14:09:21;;;;;;;2.78;0.70;;;6.30;99.90;;;;;;5093414;28;20709;-61
2022/01/23 14:11:48;;;;;;;1.25;0.70;;;6.40;99.90;;;;;;5093810;28;20422;-60
2022/01/23 14:14:21;;;;;;;1.23;0.80;;;6.50;99.90;;;;;;5094151;28;20486;-60
2022/01/23 14:16:52;;;;;;;1.47;0.70;;;6.50;99.90;;;;;;5091971;28;20415;-61
2022/01/23 14:19:22;;;;;;;1.40;0.80;;;6.50;99.90;;;;;;5090987;28;20555;-61
2022/01/23 14:21:51;;;;;;;2.05;0.80;;;6.60;99.90;;;;;;5093115;28;20464;-60
2022/01/23 14:24:23;;;;;;;1.35;0.70;;;6.60;99.90;;;;;;5093035;28;20471;-60
2022/01/23 14:27:03;;;;;;;1.67;0.80;;;6.60;99.90;;;;;;5091867;28;20463;-60
2022/01/23 14:29:35;;;;;;;1.10;0.60;;;6.50;99.90;;;;;;5093325;28;20828;-60
2022/01/23 14:32:12;;;;;;;1.58;0.70;;;6.30;99.90;;;;;;5094068;28;20833;-60
2022/01/23 14:34:41;;;;;;;1.60;0.70;;;6.30;99.90;;;;;;5094068;28;20430;-61
2022/01/23 14:37:09;;;;;;;1.50;0.70;;;6.40;99.90;;;;;;5094720;28;20418;-60
2022/01/23 14:39:36;;;;;;;1.20;0.60;;;6.50;99.90;;;;;;5093882;28;20516;-60
2022/01/23 14:42:18;;;;;;;1.10;0.60;;;6.60;99.90;;;;;;5094487;28;20414;-60
2022/01/23 14:44:47;;;;;;;1.33;0.70;;;6.60;99.90;;;;;;5094197;28;20528;-60
2022/01/23 14:47:14;;;;;;;1.17;0.60;;;6.50;99.90;;;;;;5094164;28;20480;-61
2022/01/23 14:49:45;;;;;;;1.00;0.52;;;6.40;99.90;;;;;;5094044;28;21014;-62
2022/01/23 14:52:14;;;;;;;0.90;0.60;;;6.30;99.90;;;;;;5092703;28;20418;-60
2022/01/23 14:54:42;;;;;;;0.80;0.60;;;6.40;99.90;;;;;;5092215;28;20425;-61
2022/01/23 14:57:14;;;;;;;1.20;0.50;;;6.40;99.90;;;;;;5092517;28;20422;-60
2022/01/23 14:59:41;;;;;;;1.10;0.60;;;6.40;99.90;;;;;;5093680;28;20429;-61
2022/01/23 15:02:10;;;;;;;0.90;0.60;;;6.40;99.90;;;;;;5093529;28;20821;-61
2022/01/23 15:04:45;;;;;;;1.10;0.70;;;6.40;99.90;;;;;;5093702;28;20465;-61
2022/01/23 15:07:15;;;;;;;1.13;0.60;;;6.40;99.90;;;;;;5093980;28;20436;-60
2022/01/23 15:09:43;;;;;;;1.20;0.60;;;6.20;99.90;;;;;;5093910;28;20528;-60
2022/01/23 15:12:11;;;;;;;1.50;0.70;;;6.10;99.90;;;;;;5093956;28;20457;-61
2022/01/23 15:14:39;;;;;;;1.10;0.60;;;6.20;99.90;;;;;;5093578;28;20470;-60
2022/01/23 15:17:06;;;;;;;1.40;0.70;;;6.20;99.90;;;;;;5091849;28;20414;-61
2022/01/23 15:19:37;;;;;;;1.00;0.60;;;6.20;99.90;;;;;;5072593;28;20454;-60
2022/01/23 15:22:04;;;;;;;1.20;0.60;;;6.10;99.90;;;;;;5075425;28;20827;-60
2022/01/23 15:24:31;;;;;;;1.20;0.68;;;6.10;99.90;;;;;;5073865;28;20454;-61
2022/01/23 15:26:58;;;;;;;1.20;0.60;;;6.20;99.90;;;;;;5075041;28;20785;-61
2022/01/23 15:29:26;;;;;;;0.90;0.60;;;6.10;99.90;;;;;;5076250;28;20458;-61
2022/01/23 15:31:53;;;;;;;1.05;0.60;;;6.10;99.90;;;;;;5088980;28;20788;-60